sensor_id;sensor_type;location;lat;lon;timestamp;temperature;humidity
20610;DHT22;10463;52.378;9.688;2022-10-18T00:00:28;29.90;30.00
20610;DHT22;10463;52.378;9.688;2022-10-18T00:03:12;29.90;30.00
20610;DHT22;10463;52.378;9.688;2022-10-18T00:05:57;29.80;29.90
20610;DHT22;10463;52.378;9.688;2022-10-18T00:08:42;29.90;30.00
20610;DHT22;10463;52.378;9.688;2022-10-18T00:11:28;29.90;30.00
20610;DHT22;10463;52.378;9.688;2022-10-18T00:14:13;29.80;30.00
20610;DHT22;10463;52.378;9.688;2022-10-18T00:16:57;29.90;30.00
20610;DHT22;10463;52.378;9.688;2022-10-18T00:19:42;29.80;30.00
20610;DHT22;10463;52.378;9.688;2022-10-18T00:22:27;29.80;30.60
20610;DHT22;10463;52.378;9.688;2022-10-18T00:25:13;29.80;30.00
20610;DHT22;10463;52.378;9.688;2022-10-18T00:27:59;29.90;30.00
20610;DHT22;10463;52.378;9.688;2022-10-18T00:30:43;29.80;30.00
20610;DHT22;10463;52.378;9.688;2022-10-18T00:33:28;29.80;30.00
20610;DHT22;10463;52.378;9.688;2022-10-18T00:36:13;29.80;30.00
20610;DHT22;10463;52.378;9.688;2022-10-18T00:38:58;29.80;30.00
20610;DHT22;10463;52.378;9.688;2022-10-18T00:41:44;29.80;30.00
20610;DHT22;10463;52.378;9.688;2022-10-18T00:45:18;29.80;30.60
20610;DHT22;10463;52.378;9.688;2022-10-18T00:48:03;29.70;30.00
20610;DHT22;10463;52.378;9.688;2022-10-18T00:50:49;29.70;30.00
20610;DHT22;10463;52.378;9.688;2022-10-18T00:53:34;29.70;30.00
20610;DHT22;10463;52.378;9.688;2022-10-18T00:56:19;29.70;30.00
20610;DHT22;10463;52.378;9.688;2022-10-18T00:59:04;29.70;30.00
20610;DHT22;10463;52.378;9.688;2022-10-18T01:01:52;29.70;30.00
20610;DHT22;10463;52.378;9.688;2022-10-18T01:04:37;29.70;30.00
20610;DHT22;10463;52.378;9.688;2022-10-18T01:07:41;29.70;30.00
20610;DHT22;10463;52.378;9.688;2022-10-18T01:10:36;29.70;30.00
20610;DHT22;10463;52.378;9.688;2022-10-18T01:13:36;29.60;30.00
20610;DHT22;10463;52.378;9.688;2022-10-18T01:16:27;29.60;30.00
20610;DHT22;10463;52.378;9.688;2022-10-18T01:22:44;29.60;30.00
20610;DHT22;10463;52.378;9.688;2022-10-18T01:25:48;29.60;30.00
20610;DHT22;10463;52.378;9.688;2022-10-18T01:28:51;29.60;30.00
20610;DHT22;10463;52.378;9.688;2022-10-18T01:31:44;29.60;30.10
20610;DHT22;10463;52.378;9.688;2022-10-18T01:34:34;29.60;30.10
20610;DHT22;10463;52.378;9.688;2022-10-18T01:37:20;29.50;30.10
20610;DHT22;10463;52.378;9.688;2022-10-18T01:40:08;29.50;30.00
20610;DHT22;10463;52.378;9.688;2022-10-18T01:42:56;29.60;30.10
20610;DHT22;10463;52.378;9.688;2022-10-18T01:45:41;29.50;30.10
20610;DHT22;10463;52.378;9.688;2022-10-18T01:48:28;29.50;30.10
20610;DHT22;10463;52.378;9.688;2022-10-18T01:51:17;29.50;30.10
20610;DHT22;10463;52.378;9.688;2022-10-18T01:54:02;29.50;30.20
20610;DHT22;10463;52.378;9.688;2022-10-18T01:56:54;29.50;30.10
20610;DHT22;10463;52.378;9.688;2022-10-18T01:59:49;29.50;30.20
20610;DHT22;10463;52.378;9.688;2022-10-18T02:02:44;29.50;30.20
20610;DHT22;10463;52.378;9.688;2022-10-18T02:05:38;29.50;30.90
20610;DHT22;10463;52.378;9.688;2022-10-18T02:08:31;29.50;30.20
20610;DHT22;10463;52.378;9.688;2022-10-18T02:11:18;29.40;30.10
20610;DHT22;10463;52.378;9.688;2022-10-18T02:14:07;29.40;30.10
20610;DHT22;10463;52.378;9.688;2022-10-18T02:16:56;29.40;30.20
20610;DHT22;10463;52.378;9.688;2022-10-18T02:19:46;29.40;30.20
20610;DHT22;10463;52.378;9.688;2022-10-18T02:22:35;29.40;30.20
20610;DHT22;10463;52.378;9.688;2022-10-18T02:25:23;29.40;30.20
20610;DHT22;10463;52.378;9.688;2022-10-18T02:28:12;29.40;30.20
20610;DHT22;10463;52.378;9.688;2022-10-18T02:31:03;29.40;30.20
20610;DHT22;10463;52.378;9.688;2022-10-18T02:33:53;29.40;30.20
20610;DHT22;10463;52.378;9.688;2022-10-18T02:36:43;29.40;30.30
20610;DHT22;10463;52.378;9.688;2022-10-18T02:39:33;29.30;30.20
20610;DHT22;10463;52.378;9.688;2022-10-18T02:42:19;29.30;30.20
20610;DHT22;10463;52.378;9.688;2022-10-18T02:45:05;29.30;30.20
20610;DHT22;10463;52.378;9.688;2022-10-18T02:47:50;29.30;30.20
20610;DHT22;10463;52.378;9.688;2022-10-18T02:50:35;29.30;30.20
20610;DHT22;10463;52.378;9.688;2022-10-18T02:53:20;29.30;30.20
20610;DHT22;10463;52.378;9.688;2022-10-18T02:56:07;29.30;30.20
20610;DHT22;10463;52.378;9.688;2022-10-18T02:58:52;29.30;30.20
20610;DHT22;10463;52.378;9.688;2022-10-18T03:01:37;29.30;30.20
20610;DHT22;10463;52.378;9.688;2022-10-18T03:04:21;29.20;30.20
20610;DHT22;10463;52.378;9.688;2022-10-18T03:07:06;29.30;30.20
20610;DHT22;10463;52.378;9.688;2022-10-18T03:09:51;29.20;30.20
20610;DHT22;10463;52.378;9.688;2022-10-18T03:12:37;29.20;30.20
20610;DHT22;10463;52.378;9.688;2022-10-18T03:15:22;29.20;30.20
20610;DHT22;10463;52.378;9.688;2022-10-18T03:18:06;29.20;30.20
20610;DHT22;10463;52.378;9.688;2022-10-18T03:20:51;29.20;30.20
20610;DHT22;10463;52.378;9.688;2022-10-18T03:23:36;29.20;30.20
20610;DHT22;10463;52.378;9.688;2022-10-18T03:26:20;29.20;30.20
20610;DHT22;10463;52.378;9.688;2022-10-18T03:29:07;29.20;30.20
20610;DHT22;10463;52.378;9.688;2022-10-18T03:31:52;29.20;30.20
20610;DHT22;10463;52.378;9.688;2022-10-18T03:34:37;29.10;30.20
20610;DHT22;10463;52.378;9.688;2022-10-18T03:37:21;29.10;30.20
20610;DHT22;10463;52.378;9.688;2022-10-18T03:40:08;29.10;30.20
20610;DHT22;10463;52.378;9.688;2022-10-18T03:42:53;29.10;30.20
20610;DHT22;10463;52.378;9.688;2022-10-18T03:45:39;29.10;30.20
20610;DHT22;10463;52.378;9.688;2022-10-18T03:48:23;29.10;30.90
20610;DHT22;10463;52.378;9.688;2022-10-18T03:51:08;29.10;30.30
20610;DHT22;10463;52.378;9.688;2022-10-18T03:53:52;29.10;30.30
20610;DHT22;10463;52.378;9.688;2022-10-18T03:56:37;29.10;30.30
20610;DHT22;10463;52.378;9.688;2022-10-18T03:59:22;29.10;30.30
20610;DHT22;10463;52.378;9.688;2022-10-18T04:02:09;29.00;30.20
20610;DHT22;10463;52.378;9.688;2022-10-18T04:04:53;29.00;30.20
20610;DHT22;10463;52.378;9.688;2022-10-18T04:07:38;29.00;31.00
20610;DHT22;10463;52.378;9.688;2022-10-18T04:10:23;29.00;30.30
20610;DHT22;10463;52.378;9.688;2022-10-18T04:13:08;29.00;30.30
20610;DHT22;10463;52.378;9.688;2022-10-18T04:15:53;29.00;31.00
20610;DHT22;10463;52.378;9.688;2022-10-18T04:18:39;29.00;30.40
20610;DHT22;10463;52.378;9.688;2022-10-18T04:21:23;29.00;30.40
20610;DHT22;10463;52.378;9.688;2022-10-18T04:24:08;29.00;30.40
20610;DHT22;10463;52.378;9.688;2022-10-18T04:26:53;29.00;30.40
20610;DHT22;10463;52.378;9.688;2022-10-18T04:29:37;29.00;30.40
20610;DHT22;10463;52.378;9.688;2022-10-18T04:32:22;29.00;30.40
20610;DHT22;10463;52.378;9.688;2022-10-18T04:35:09;28.90;30.30
20610;DHT22;10463;52.378;9.688;2022-10-18T04:37:54;29.00;30.40
20610;DHT22;10463;52.378;9.688;2022-10-18T04:40:39;28.90;30.40
20610;DHT22;10463;52.378;9.688;2022-10-18T04:43:23;28.90;30.40
20610;DHT22;10463;52.378;9.688;2022-10-18T04:46:08;28.90;30.40
20610;DHT22;10463;52.378;9.688;2022-10-18T04:48:53;28.90;30.40
20610;DHT22;10463;52.378;9.688;2022-10-18T04:51:39;28.90;30.40
20610;DHT22;10463;52.378;9.688;2022-10-18T04:54:23;28.90;31.10
20610;DHT22;10463;52.378;9.688;2022-10-18T04:57:08;28.90;30.40
20610;DHT22;10463;52.378;9.688;2022-10-18T04:59:53;28.90;30.40
20610;DHT22;10463;52.378;9.688;2022-10-18T05:02:38;28.90;30.40
20610;DHT22;10463;52.378;9.688;2022-10-18T05:05:22;28.90;30.50
20610;DHT22;10463;52.378;9.688;2022-10-18T05:08:09;28.90;30.50
20610;DHT22;10463;52.378;9.688;2022-10-18T05:10:53;28.80;30.40
20610;DHT22;10463;52.378;9.688;2022-10-18T05:13:38;28.90;30.50
20610;DHT22;10463;52.378;9.688;2022-10-18T05:16:22;28.80;30.50
20610;DHT22;10463;52.378;9.688;2022-10-18T05:19:09;28.90;30.50
20610;DHT22;10463;52.378;9.688;2022-10-18T05:21:54;28.90;30.50
20610;DHT22;10463;52.378;9.688;2022-10-18T05:24:40;28.80;30.50
20610;DHT22;10463;52.378;9.688;2022-10-18T05:27:25;28.80;30.60
20610;DHT22;10463;52.378;9.688;2022-10-18T05:30:10;28.80;30.50
20610;DHT22;10463;52.378;9.688;2022-10-18T05:32:58;28.80;30.60
20610;DHT22;10463;52.378;9.688;2022-10-18T05:35:43;28.80;31.00
20610;DHT22;10463;52.378;9.688;2022-10-18T05:38:28;28.80;30.70
20610;DHT22;10463;52.378;9.688;2022-10-18T05:41:17;28.80;31.50
20610;DHT22;10463;52.378;9.688;2022-10-18T05:44:03;28.70;30.70
20610;DHT22;10463;52.378;9.688;2022-10-18T05:46:48;28.80;30.70
20610;DHT22;10463;52.378;9.688;2022-10-18T05:49:33;28.70;30.70
20610;DHT22;10463;52.378;9.688;2022-10-18T05:52:19;28.70;30.70
20610;DHT22;10463;52.378;9.688;2022-10-18T05:55:05;28.70;30.70
20610;DHT22;10463;52.378;9.688;2022-10-18T05:57:51;28.70;30.80
20610;DHT22;10463;52.378;9.688;2022-10-18T06:00:35;28.70;30.80
20610;DHT22;10463;52.378;9.688;2022-10-18T06:03:20;28.70;30.80
20610;DHT22;10463;52.378;9.688;2022-10-18T06:06:07;28.70;30.80
20610;DHT22;10463;52.378;9.688;2022-10-18T06:08:53;28.70;30.90
20610;DHT22;10463;52.378;9.688;2022-10-18T06:11:38;28.70;30.80
20610;DHT22;10463;52.378;9.688;2022-10-18T06:14:24;28.70;30.80
20610;DHT22;10463;52.378;9.688;2022-10-18T06:17:09;28.70;30.80
20610;DHT22;10463;52.378;9.688;2022-10-18T06:19:53;28.70;30.80
20610;DHT22;10463;52.378;9.688;2022-10-18T06:22:38;28.70;30.90
20610;DHT22;10463;52.378;9.688;2022-10-18T06:25:23;28.70;30.80
20610;DHT22;10463;52.378;9.688;2022-10-18T06:28:08;28.70;30.90
20610;DHT22;10463;52.378;9.688;2022-10-18T06:30:54;28.70;30.90
20610;DHT22;10463;52.378;9.688;2022-10-18T06:33:39;28.70;30.90
20610;DHT22;10463;52.378;9.688;2022-10-18T06:36:24;28.70;30.90
20610;DHT22;10463;52.378;9.688;2022-10-18T06:39:09;28.70;30.90
20610;DHT22;10463;52.378;9.688;2022-10-18T06:41:54;28.70;31.00
20610;DHT22;10463;52.378;9.688;2022-10-18T06:44:39;28.70;31.70
20610;DHT22;10463;52.378;9.688;2022-10-18T06:47:25;28.70;31.00
20610;DHT22;10463;52.378;9.688;2022-10-18T06:50:10;28.70;31.00
20610;DHT22;10463;52.378;9.688;2022-10-18T06:52:55;28.70;31.00
20610;DHT22;10463;52.378;9.688;2022-10-18T06:55:40;28.70;31.70
20610;DHT22;10463;52.378;9.688;2022-10-18T06:58:24;28.70;31.00
20610;DHT22;10463;52.378;9.688;2022-10-18T07:01:11;28.70;31.70
20610;DHT22;10463;52.378;9.688;2022-10-18T07:03:58;28.70;31.00
20610;DHT22;10463;52.378;9.688;2022-10-18T07:06:43;28.70;31.00
20610;DHT22;10463;52.378;9.688;2022-10-18T07:09:28;28.70;31.00
20610;DHT22;10463;52.378;9.688;2022-10-18T07:12:13;28.70;31.00
20610;DHT22;10463;52.378;9.688;2022-10-18T07:15:01;28.60;31.00
20610;DHT22;10463;52.378;9.688;2022-10-18T07:17:45;28.60;31.00
20610;DHT22;10463;52.378;9.688;2022-10-18T07:20:32;28.60;31.00
20610;DHT22;10463;52.378;9.688;2022-10-18T07:23:17;28.60;31.00
20610;DHT22;10463;52.378;9.688;2022-10-18T07:26:12;28.60;30.90
20610;DHT22;10463;52.378;9.688;2022-10-18T07:29:00;28.60;31.00
20610;DHT22;10463;52.378;9.688;2022-10-18T07:31:45;28.70;31.10
20610;DHT22;10463;52.378;9.688;2022-10-18T07:34:30;28.70;31.70
20610;DHT22;10463;52.378;9.688;2022-10-18T07:37:16;28.60;31.00
20610;DHT22;10463;52.378;9.688;2022-10-18T07:40:01;28.70;31.10
20610;DHT22;10463;52.378;9.688;2022-10-18T07:42:46;28.60;31.00
20610;DHT22;10463;52.378;9.688;2022-10-18T07:45:31;28.70;31.10
20610;DHT22;10463;52.378;9.688;2022-10-18T07:48:16;28.60;31.00
20610;DHT22;10463;52.378;9.688;2022-10-18T07:51:01;28.60;31.00
20610;DHT22;10463;52.378;9.688;2022-10-18T07:53:47;28.70;31.20
20610;DHT22;10463;52.378;9.688;2022-10-18T07:56:32;28.70;31.20
20610;DHT22;10463;52.378;9.688;2022-10-18T07:59:16;28.70;31.20
20610;DHT22;10463;52.378;9.688;2022-10-18T08:02:01;28.70;31.20
20610;DHT22;10463;52.378;9.688;2022-10-18T08:04:46;28.70;31.20
20610;DHT22;10463;52.378;9.688;2022-10-18T08:07:30;28.70;31.20
20610;DHT22;10463;52.378;9.688;2022-10-18T08:10:18;28.70;31.20
20610;DHT22;10463;52.378;9.688;2022-10-18T08:13:03;28.70;31.90
20610;DHT22;10463;52.378;9.688;2022-10-18T08:15:48;28.60;31.10
20610;DHT22;10463;52.378;9.688;2022-10-18T08:18:33;28.60;31.20
20610;DHT22;10463;52.378;9.688;2022-10-18T08:21:19;28.70;31.30
20610;DHT22;10463;52.378;9.688;2022-10-18T08:24:05;28.70;31.30
20610;DHT22;10463;52.378;9.688;2022-10-18T08:26:51;28.70;31.30
20610;DHT22;10463;52.378;9.688;2022-10-18T08:29:36;28.70;31.30
20610;DHT22;10463;52.378;9.688;2022-10-18T08:32:21;28.70;31.30
20610;DHT22;10463;52.378;9.688;2022-10-18T08:35:06;28.70;31.30
20610;DHT22;10463;52.378;9.688;2022-10-18T08:37:51;28.70;31.30
20610;DHT22;10463;52.378;9.688;2022-10-18T08:40:41;28.70;31.30
20610;DHT22;10463;52.378;9.688;2022-10-18T08:43:34;28.70;31.30
20610;DHT22;10463;52.378;9.688;2022-10-18T08:46:22;28.70;31.30
20610;DHT22;10463;52.378;9.688;2022-10-18T08:49:12;28.70;31.20
20610;DHT22;10463;52.378;9.688;2022-10-18T08:52:00;28.70;31.30
20610;DHT22;10463;52.378;9.688;2022-10-18T08:54:54;28.70;31.20
20610;DHT22;10463;52.378;9.688;2022-10-18T08:57:42;28.70;31.20
20610;DHT22;10463;52.378;9.688;2022-10-18T09:00:33;28.80;31.20
20610;DHT22;10463;52.378;9.688;2022-10-18T09:03:33;28.70;31.80
20610;DHT22;10463;52.378;9.688;2022-10-18T09:06:27;28.80;31.20
20610;DHT22;10463;52.378;9.688;2022-10-18T09:09:27;28.80;31.20
20610;DHT22;10463;52.378;9.688;2022-10-18T09:12:33;28.80;31.20
20610;DHT22;10463;52.378;9.688;2022-10-18T09:15:35;28.80;31.20
20610;DHT22;10463;52.378;9.688;2022-10-18T09:18:41;28.80;31.20
20610;DHT22;10463;52.378;9.688;2022-10-18T09:21:41;28.80;31.20
20610;DHT22;10463;52.378;9.688;2022-10-18T09:24:38;28.90;31.20
20610;DHT22;10463;52.378;9.688;2022-10-18T09:27:34;28.90;31.30
20610;DHT22;10463;52.378;9.688;2022-10-18T09:30:42;28.90;31.20
20610;DHT22;10463;52.378;9.688;2022-10-18T09:33:39;28.90;31.20
20610;DHT22;10463;52.378;9.688;2022-10-18T09:36:27;28.90;31.20
20610;DHT22;10463;52.378;9.688;2022-10-18T09:39:20;28.90;31.20
20610;DHT22;10463;52.378;9.688;2022-10-18T09:42:12;28.90;31.20
20610;DHT22;10463;52.378;9.688;2022-10-18T09:45:02;28.90;31.20
20610;DHT22;10463;52.378;9.688;2022-10-18T09:47:56;28.90;31.20
20610;DHT22;10463;52.378;9.688;2022-10-18T09:50:46;28.90;31.20
20610;DHT22;10463;52.378;9.688;2022-10-18T09:53:39;28.90;31.30
20610;DHT22;10463;52.378;9.688;2022-10-18T09:56:29;29.00;31.30
20610;DHT22;10463;52.378;9.688;2022-10-18T09:59:47;29.00;31.30
20610;DHT22;10463;52.378;9.688;2022-10-18T10:02:33;29.00;31.30
20610;DHT22;10463;52.378;9.688;2022-10-18T10:05:19;29.00;31.30
20610;DHT22;10463;52.378;9.688;2022-10-18T10:08:04;29.00;31.40
20610;DHT22;10463;52.378;9.688;2022-10-18T10:10:49;29.00;31.30
20610;DHT22;10463;52.378;9.688;2022-10-18T10:13:34;29.00;31.30
20610;DHT22;10463;52.378;9.688;2022-10-18T10:16:19;29.00;31.30
20610;DHT22;10463;52.378;9.688;2022-10-18T10:19:04;29.10;31.30
20610;DHT22;10463;52.378;9.688;2022-10-18T10:21:56;29.10;31.30
20610;DHT22;10463;52.378;9.688;2022-10-18T10:24:47;29.10;31.30
20610;DHT22;10463;52.378;9.688;2022-10-18T10:27:38;29.10;31.30
20610;DHT22;10463;52.378;9.688;2022-10-18T10:30:29;29.10;31.30
20610;DHT22;10463;52.378;9.688;2022-10-18T10:33:35;29.10;31.30
20610;DHT22;10463;52.378;9.688;2022-10-18T10:36:20;29.20;31.30
20610;DHT22;10463;52.378;9.688;2022-10-18T10:39:11;29.20;31.40
20610;DHT22;10463;52.378;9.688;2022-10-18T10:41:58;29.20;31.40
20610;DHT22;10463;52.378;9.688;2022-10-18T10:44:53;29.20;31.40
20610;DHT22;10463;52.378;9.688;2022-10-18T10:47:39;29.20;31.40
20610;DHT22;10463;52.378;9.688;2022-10-18T10:50:26;29.30;31.50
20610;DHT22;10463;52.378;9.688;2022-10-18T10:53:35;29.30;31.50
20610;DHT22;10463;52.378;9.688;2022-10-18T10:56:25;29.30;31.40
20610;DHT22;10463;52.378;9.688;2022-10-18T10:59:15;29.40;31.50
20610;DHT22;10463;52.378;9.688;2022-10-18T11:02:20;29.40;31.50
20610;DHT22;10463;52.378;9.688;2022-10-18T11:05:21;29.40;31.40
20610;DHT22;10463;52.378;9.688;2022-10-18T11:08:08;29.40;31.40
20610;DHT22;10463;52.378;9.688;2022-10-18T11:11:03;29.50;31.40
20610;DHT22;10463;52.378;9.688;2022-10-18T11:14:00;29.50;31.40
20610;DHT22;10463;52.378;9.688;2022-10-18T11:16:54;29.50;31.50
20610;DHT22;10463;52.378;9.688;2022-10-18T11:19:54;29.60;31.50
20610;DHT22;10463;52.378;9.688;2022-10-18T11:22:49;29.60;31.50
20610;DHT22;10463;52.378;9.688;2022-10-18T11:29:24;29.70;31.50
20610;DHT22;10463;52.378;9.688;2022-10-18T11:32:23;29.70;31.50
20610;DHT22;10463;52.378;9.688;2022-10-18T11:35:29;29.70;31.50
20610;DHT22;10463;52.378;9.688;2022-10-18T11:38:28;29.80;31.60
20610;DHT22;10463;52.378;9.688;2022-10-18T11:41:29;29.80;31.70
20610;DHT22;10463;52.378;9.688;2022-10-18T11:44:22;29.90;31.80
20610;DHT22;10463;52.378;9.688;2022-10-18T11:47:15;29.90;31.90
20610;DHT22;10463;52.378;9.688;2022-10-18T11:50:14;30.00;31.90
20610;DHT22;10463;52.378;9.688;2022-10-18T11:53:15;30.00;31.90
20610;DHT22;10463;52.378;9.688;2022-10-18T11:56:12;30.10;31.90
20610;DHT22;10463;52.378;9.688;2022-10-18T12:02:40;30.20;32.00
20610;DHT22;10463;52.378;9.688;2022-10-18T12:05:30;30.20;31.90
20610;DHT22;10463;52.378;9.688;2022-10-18T12:08:22;30.30;31.90
20610;DHT22;10463;52.378;9.688;2022-10-18T12:11:14;30.30;31.90
20610;DHT22;10463;52.378;9.688;2022-10-18T12:14:02;30.40;31.90
20610;DHT22;10463;52.378;9.688;2022-10-18T12:16:49;30.40;31.90
20610;DHT22;10463;52.378;9.688;2022-10-18T12:19:36;30.50;31.90
20610;DHT22;10463;52.378;9.688;2022-10-18T12:22:24;30.50;31.80
20610;DHT22;10463;52.378;9.688;2022-10-18T12:25:12;30.60;31.80
20610;DHT22;10463;52.378;9.688;2022-10-18T12:28:04;30.60;31.70
20610;DHT22;10463;52.378;9.688;2022-10-18T12:30:56;30.60;31.60
20610;DHT22;10463;52.378;9.688;2022-10-18T12:33:49;30.70;31.50
20610;DHT22;10463;52.378;9.688;2022-10-18T12:40:02;30.70;31.30
20610;DHT22;10463;52.378;9.688;2022-10-18T12:42:51;30.80;31.10
20610;DHT22;10463;52.378;9.688;2022-10-18T12:45:49;30.80;31.00
20610;DHT22;10463;52.378;9.688;2022-10-18T12:48:37;30.90;30.80
20610;DHT22;10463;52.378;9.688;2022-10-18T12:51:22;30.90;30.70
20610;DHT22;10463;52.378;9.688;2022-10-18T12:54:15;30.90;30.60
20610;DHT22;10463;52.378;9.688;2022-10-18T12:57:02;31.00;30.60
20610;DHT22;10463;52.378;9.688;2022-10-18T12:59:47;31.00;30.40
20610;DHT22;10463;52.378;9.688;2022-10-18T13:02:33;31.00;30.10
20610;DHT22;10463;52.378;9.688;2022-10-18T13:05:54;31.10;30.10
20610;DHT22;10463;52.378;9.688;2022-10-18T13:08:42;31.10;29.90
20610;DHT22;10463;52.378;9.688;2022-10-18T13:11:31;31.20;30.00
20610;DHT22;10463;52.378;9.688;2022-10-18T13:14:50;31.10;29.80
20610;DHT22;10463;52.378;9.688;2022-10-18T13:17:45;31.20;29.80
20610;DHT22;10463;52.378;9.688;2022-10-18T13:20:38;31.20;29.70
20610;DHT22;10463;52.378;9.688;2022-10-18T13:23:38;31.20;29.60
20610;DHT22;10463;52.378;9.688;2022-10-18T13:26:36;31.30;29.50
20610;DHT22;10463;52.378;9.688;2022-10-18T13:29:52;31.30;29.50
20610;DHT22;10463;52.378;9.688;2022-10-18T13:32:50;31.30;29.40
20610;DHT22;10463;52.378;9.688;2022-10-18T13:35:54;31.40;29.40
20610;DHT22;10463;52.378;9.688;2022-10-18T13:38:57;31.40;29.80
20610;DHT22;10463;52.378;9.688;2022-10-18T13:42:29;31.40;29.30
20610;DHT22;10463;52.378;9.688;2022-10-18T13:45:52;31.40;29.20
20610;DHT22;10463;52.378;9.688;2022-10-18T13:48:49;31.50;29.30
20610;DHT22;10463;52.378;9.688;2022-10-18T13:51:48;31.50;29.40
20610;DHT22;10463;52.378;9.688;2022-10-18T13:54:52;31.50;29.50
20610;DHT22;10463;52.378;9.688;2022-10-18T13:57:51;31.50;29.60
20610;DHT22;10463;52.378;9.688;2022-10-18T14:01:00;31.60;29.70
20610;DHT22;10463;52.378;9.688;2022-10-18T14:07:21;31.70;29.70
20610;DHT22;10463;52.378;9.688;2022-10-18T14:10:12;31.70;29.50
20610;DHT22;10463;52.378;9.688;2022-10-18T14:13:03;31.70;29.50
20610;DHT22;10463;52.378;9.688;2022-10-18T14:15:51;31.70;29.40
20610;DHT22;10463;52.378;9.688;2022-10-18T14:18:40;31.80;29.40
20610;DHT22;10463;52.378;9.688;2022-10-18T14:21:33;31.70;29.30
20610;DHT22;10463;52.378;9.688;2022-10-18T14:24:21;31.80;29.30
20610;DHT22;10463;52.378;9.688;2022-10-18T14:27:17;31.80;29.30
20610;DHT22;10463;52.378;9.688;2022-10-18T14:30:13;31.80;29.20
20610;DHT22;10463;52.378;9.688;2022-10-18T14:32:58;31.80;29.20
20610;DHT22;10463;52.378;9.688;2022-10-18T14:35:43;31.90;29.20
20610;DHT22;10463;52.378;9.688;2022-10-18T14:38:48;31.90;29.20
20610;DHT22;10463;52.378;9.688;2022-10-18T14:41:36;31.90;29.20
20610;DHT22;10463;52.378;9.688;2022-10-18T14:44:26;31.90;29.10
20610;DHT22;10463;52.378;9.688;2022-10-18T14:47:15;31.90;29.10
20610;DHT22;10463;52.378;9.688;2022-10-18T14:50:01;31.90;29.00
20610;DHT22;10463;52.378;9.688;2022-10-18T14:52:45;31.90;28.90
20610;DHT22;10463;52.378;9.688;2022-10-18T14:55:30;31.90;28.90
20610;DHT22;10463;52.378;9.688;2022-10-18T14:58:17;31.90;28.90
20610;DHT22;10463;52.378;9.688;2022-10-18T15:01:02;31.90;28.90
20610;DHT22;10463;52.378;9.688;2022-10-18T15:03:49;32.00;28.90
20610;DHT22;10463;52.378;9.688;2022-10-18T15:06:42;32.00;28.80
20610;DHT22;10463;52.378;9.688;2022-10-18T15:09:28;32.00;28.80
20610;DHT22;10463;52.378;9.688;2022-10-18T15:12:15;32.00;28.70
20610;DHT22;10463;52.378;9.688;2022-10-18T15:15:02;32.00;28.70
20610;DHT22;10463;52.378;9.688;2022-10-18T15:17:48;32.00;28.60
20610;DHT22;10463;52.378;9.688;2022-10-18T15:20:36;32.00;28.60
20610;DHT22;10463;52.378;9.688;2022-10-18T15:23:27;32.00;28.50
20610;DHT22;10463;52.378;9.688;2022-10-18T15:26:22;32.00;28.50
20610;DHT22;10463;52.378;9.688;2022-10-18T15:29:17;32.00;28.50
20610;DHT22;10463;52.378;9.688;2022-10-18T15:32:18;32.00;29.00
20610;DHT22;10463;52.378;9.688;2022-10-18T15:35:13;32.00;28.50
20610;DHT22;10463;52.378;9.688;2022-10-18T15:38:13;32.00;28.50
20610;DHT22;10463;52.378;9.688;2022-10-18T15:40:58;32.00;28.50
20610;DHT22;10463;52.378;9.688;2022-10-18T15:43:43;32.00;28.50
20610;DHT22;10463;52.378;9.688;2022-10-18T15:46:30;32.00;28.50
20610;DHT22;10463;52.378;9.688;2022-10-18T15:49:54;32.00;28.50
20610;DHT22;10463;52.378;9.688;2022-10-18T15:52:41;31.90;28.40
20610;DHT22;10463;52.378;9.688;2022-10-18T15:55:48;31.90;28.40
20610;DHT22;10463;52.378;9.688;2022-10-18T15:58:40;31.90;28.40
20610;DHT22;10463;52.378;9.688;2022-10-18T16:01:33;31.90;28.40
20610;DHT22;10463;52.378;9.688;2022-10-18T16:04:26;31.90;28.50
20610;DHT22;10463;52.378;9.688;2022-10-18T16:07:11;31.80;28.50
20610;DHT22;10463;52.378;9.688;2022-10-18T16:09:55;31.80;28.50
20610;DHT22;10463;52.378;9.688;2022-10-18T16:12:42;31.80;28.50
20610;DHT22;10463;52.378;9.688;2022-10-18T16:15:26;31.70;28.50
20610;DHT22;10463;52.378;9.688;2022-10-18T16:18:15;31.70;28.50
20610;DHT22;10463;52.378;9.688;2022-10-18T16:21:00;31.70;28.50
20610;DHT22;10463;52.378;9.688;2022-10-18T16:23:45;31.70;28.50
20610;DHT22;10463;52.378;9.688;2022-10-18T16:26:30;31.60;28.50
20610;DHT22;10463;52.378;9.688;2022-10-18T16:29:20;31.60;28.60
20610;DHT22;10463;52.378;9.688;2022-10-18T16:32:07;31.60;28.60
20610;DHT22;10463;52.378;9.688;2022-10-18T16:34:52;31.60;28.60
20610;DHT22;10463;52.378;9.688;2022-10-18T16:37:37;31.50;28.50
20610;DHT22;10463;52.378;9.688;2022-10-18T16:40:25;31.50;28.60
20610;DHT22;10463;52.378;9.688;2022-10-18T16:43:10;31.50;28.70
20610;DHT22;10463;52.378;9.688;2022-10-18T16:45:56;31.50;28.70
20610;DHT22;10463;52.378;9.688;2022-10-18T16:48:40;31.40;28.70
20610;DHT22;10463;52.378;9.688;2022-10-18T16:51:25;31.40;28.70
20610;DHT22;10463;52.378;9.688;2022-10-18T16:54:10;31.40;28.80
20610;DHT22;10463;52.378;9.688;2022-10-18T16:56:55;31.40;28.80
20610;DHT22;10463;52.378;9.688;2022-10-18T16:59:39;31.40;28.80
20610;DHT22;10463;52.378;9.688;2022-10-18T17:02:25;31.40;28.90
20610;DHT22;10463;52.378;9.688;2022-10-18T17:05:10;31.40;28.90
20610;DHT22;10463;52.378;9.688;2022-10-18T17:07:55;31.40;28.90
20610;DHT22;10463;52.378;9.688;2022-10-18T17:10:40;31.40;28.90
20610;DHT22;10463;52.378;9.688;2022-10-18T17:13:25;31.30;28.90
20610;DHT22;10463;52.378;9.688;2022-10-18T17:16:21;31.30;28.90
20610;DHT22;10463;52.378;9.688;2022-10-18T17:19:10;31.30;28.90
20610;DHT22;10463;52.378;9.688;2022-10-18T17:21:55;31.30;28.90
20610;DHT22;10463;52.378;9.688;2022-10-18T17:24:39;31.30;28.90
20610;DHT22;10463;52.378;9.688;2022-10-18T17:27:24;31.30;28.90
20610;DHT22;10463;52.378;9.688;2022-10-18T17:30:12;31.20;28.80
20610;DHT22;10463;52.378;9.688;2022-10-18T17:32:57;31.20;28.80
20610;DHT22;10463;52.378;9.688;2022-10-18T17:35:43;31.20;28.90
20610;DHT22;10463;52.378;9.688;2022-10-18T17:38:28;31.20;28.80
20610;DHT22;10463;52.378;9.688;2022-10-18T17:41:13;31.20;29.30
20610;DHT22;10463;52.378;9.688;2022-10-18T17:43:57;31.20;28.90
20610;DHT22;10463;52.378;9.688;2022-10-18T17:46:42;31.20;28.80
20610;DHT22;10463;52.378;9.688;2022-10-18T17:49:26;31.20;28.80
20610;DHT22;10463;52.378;9.688;2022-10-18T17:52:13;31.20;28.80
20610;DHT22;10463;52.378;9.688;2022-10-18T17:54:57;31.20;28.80
20610;DHT22;10463;52.378;9.688;2022-10-18T17:57:42;31.10;28.80
20610;DHT22;10463;52.378;9.688;2022-10-18T18:00:27;31.10;28.70
20610;DHT22;10463;52.378;9.688;2022-10-18T18:03:12;31.10;28.70
20610;DHT22;10463;52.378;9.688;2022-10-18T18:05:56;31.10;28.70